Time;durP1;ratioP1;P1;durP2;ratioP2;P2;SDS_P1;SDS_P2;PMS_P1;PMS_P2;Temp;Humidity;BMP_temperature;BMP_pressure;BME280_temperature;BME280_humidity;BME280_pressure;Samples;Min_cycle;Max_cycle;Signal;HPM_P1;HPM_P2
2023/12/03 00:01:05;;;;;;;19.90;10.80;;;;;;;-2.54;87.42;100019.13;129223;1264;114805;-60
2023/12/03 00:04:28;;;;;;;20.10;10.70;;;;;;;-2.58;86.61;100020.88;129328;1274;114767;-61
2023/12/03 00:07:31;;;;;;;19.20;10.50;;;;;;;-2.62;86.82;100025.77;129276;1274;114778;-60
2023/12/03 00:10:33;;;;;;;17.90;10.40;;;;;;;-2.64;87.02;100028.92;129346;1267;114652;-60
2023/12/03 00:13:36;;;;;;;17.60;10.50;;;;;;;-2.65;87.56;100031.38;129424;1264;114878;-58
2023/12/03 00:16:37;;;;;;;17.40;9.70;;;;;;;-2.65;86.86;100031.21;129415;1275;115410;-60
2023/12/03 00:19:40;;;;;;;19.00;11.00;;;;;;;-2.65;86.92;100037.50;129336;1265;114658;-59
2023/12/03 00:22:43;;;;;;;17.50;9.40;;;;;;;-2.65;87.28;100038.02;129421;1281;114815;-59
2023/12/03 00:25:45;;;;;;;20.30;11.40;;;;;;;-2.66;87.65;100042.39;129421;1267;115162;-60
2023/12/03 00:28:47;;;;;;;18.70;11.20;;;;;;;-2.67;87.51;100042.20;129352;1275;114858;-60
2023/12/03 00:31:49;;;;;;;18.30;11.30;;;;;;;-2.68;87.52;100048.68;129247;1267;115054;-59
2023/12/03 00:34:51;;;;;;;20.60;10.70;;;;;;;-2.65;87.61;100052.36;129463;1268;114928;-60
2023/12/03 00:37:57;;;;;;;14.10;9.10;;;;;;;-2.67;87.68;100050.27;129519;1265;115415;-62
2023/12/03 00:40:59;;;;;;;18.40;10.50;;;;;;;-2.67;87.31;100053.75;129418;1267;114812;-59
2023/12/03 00:44:04;;;;;;;18.80;10.70;;;;;;;-2.68;87.44;100054.79;129234;1267;128048;-60
2023/12/03 00:47:06;;;;;;;18.70;10.60;;;;;;;-2.67;87.75;100056.20;129439;1265;114730;-61
2023/12/03 00:50:12;;;;;;;23.60;11.80;;;;;;;-2.67;87.80;100060.39;129406;1274;114751;-62
2023/12/03 00:53:14;;;;;;;18.40;11.50;;;;;;;-2.64;87.29;100067.55;129211;1262;115172;-60
2023/12/03 00:56:17;;;;;;;19.80;10.50;;;;;;;-2.62;87.68;100075.77;129404;1271;115293;-60
2023/12/03 00:59:19;;;;;;;18.80;10.20;;;;;;;-2.62;87.37;100074.55;129523;1273;114778;-60
2023/12/03 01:02:22;;;;;;;16.90;10.70;;;;;;;-2.62;87.38;100079.80;129578;1265;114730;-60
2023/12/03 01:05:25;;;;;;;20.70;11.10;;;;;;;-2.60;87.96;100086.63;129685;1264;115022;-60
2023/12/03 01:08:27;;;;;;;19.20;11.30;;;;;;;-2.58;88.19;100089.07;129418;1266;114742;-64
2023/12/03 01:11:28;;;;;;;18.30;11.50;;;;;;;-2.55;88.21;100096.76;129418;1267;114734;-64
2023/12/03 01:14:30;;;;;;;18.20;10.70;;;;;;;-2.53;87.99;100103.06;126732;1283;3657799;-60
2023/12/03 01:17:33;;;;;;;16.20;10.00;;;;;;;-2.51;87.92;100106.57;129310;1269;115165;-66
2023/12/03 01:20:34;;;;;;;16.20;10.00;;;;;;;-2.50;87.95;100111.98;129481;1271;114835;-59
2023/12/03 01:23:38;;;;;;;19.00;10.70;;;;;;;-2.49;88.39;100111.27;129078;1270;127342;-61
2023/12/03 01:26:40;;;;;;;18.60;10.80;;;;;;;-2.48;87.67;100114.08;129253;1266;115116;-60
2023/12/03 01:29:42;;;;;;;17.70;11.20;;;;;;;-2.47;88.24;100112.33;129205;1264;114734;-67
2023/12/03 01:32:44;;;;;;;17.40;10.90;;;;;;;-2.45;87.71;100114.59;129301;1266;115103;-64
2023/12/03 01:35:46;;;;;;;18.80;10.50;;;;;;;-2.44;88.42;100116.70;129045;1275;114842;-64
2023/12/03 01:38:48;;;;;;;18.90;10.30;;;;;;;-2.42;88.08;100119.67;129262;1274;115155;-64
2023/12/03 01:41:52;;;;;;;18.30;10.30;;;;;;;-2.41;87.81;100119.85;129408;1267;114830;-61
2023/12/03 01:44:54;;;;;;;21.70;12.10;;;;;;;-2.43;87.82;100118.80;129172;1267;127585;-61
2023/12/03 01:47:56;;;;;;;15.90;9.70;;;;;;;-2.43;88.03;100119.14;129253;1276;114835;-60
2023/12/03 01:50:58;;;;;;;19.50;10.80;;;;;;;-2.44;87.78;100122.64;129099;1284;114807;-60
2023/12/03 01:54:00;;;;;;;20.40;11.30;;;;;;;-2.44;88.03;100125.27;129162;1268;114866;-61
2023/12/03 01:57:03;;;;;;;18.70;11.10;;;;;;;-2.44;87.69;100120.71;129064;1268;116459;-62
2023/12/03 02:00:06;;;;;;;18.20;11.70;;;;;;;-2.44;88.06;100122.30;129230;1284;114826;-60
2023/12/03 02:03:08;;;;;;;20.20;10.70;;;;;;;-2.42;88.07;100125.98;129272;1264;114768;-61
2023/12/03 02:06:10;;;;;;;20.60;11.10;;;;;;;-2.41;88.10;100129.46;129215;1284;128797;-60
2023/12/03 02:09:14;;;;;;;19.90;10.90;;;;;;;-2.40;87.99;100129.29;129138;1268;114918;-61
2023/12/03 02:12:17;;;;;;;22.20;12.20;;;;;;;-2.37;88.47;100135.76;129232;1267;114781;-60
2023/12/03 02:15:18;;;;;;;17.70;11.30;;;;;;;-2.35;88.28;100135.94;129261;1274;114826;-59
2023/12/03 02:18:20;;;;;;;18.50;11.10;;;;;;;-2.35;88.55;100135.77;129324;1264;114826;-60
2023/12/03 02:21:22;;;;;;;17.70;10.30;;;;;;;-2.33;88.34;100139.09;129069;1269;115622;-60
2023/12/03 02:24:24;;;;;;;15.60;9.80;;;;;;;-2.32;87.77;100138.75;129274;1274;114757;-60
2023/12/03 02:27:26;;;;;;;19.30;11.40;;;;;;;-2.32;88.56;100140.50;129216;1284;114902;-60
2023/12/03 02:30:28;;;;;;;20.30;11.70;;;;;;;-2.34;88.33;100145.21;129183;1265;114964;-59
2023/12/03 02:33:30;;;;;;;17.30;10.10;;;;;;;-2.32;88.77;100153.09;129356;1274;114828;-60
2023/12/03 02:36:33;;;;;;;20.30;11.50;;;;;;;-2.32;88.22;100157.46;129231;1280;114828;-60
2023/12/03 02:39:34;;;;;;;20.00;11.70;;;;;;;-2.32;88.42;100161.66;129192;1260;114875;-60
2023/12/03 02:42:36;;;;;;;21.60;11.40;;;;;;;-2.31;88.37;100163.58;129420;1264;115245;-59
2023/12/03 02:45:39;;;;;;;20.50;12.00;;;;;;;-2.30;88.38;100168.48;129429;1274;114741;-60
2023/12/03 02:48:42;;;;;;;20.90;12.40;;;;;;;-2.29;88.39;100171.27;129390;1284;128339;-61
2023/12/03 02:51:47;;;;;;;17.20;11.00;;;;;;;-2.26;88.76;100173.73;129254;1266;114670;-58
2023/12/03 02:54:49;;;;;;;21.60;11.60;;;;;;;-2.25;89.09;100171.64;129332;1284;115194;-59
2023/12/03 02:57:55;;;;;;;20.20;12.00;;;;;;;-2.24;88.64;100172.67;129270;1269;115191;-60
2023/12/03 03:00:57;;;;;;;22.10;13.80;;;;;;;-2.25;88.61;100180.73;129233;1277;114904;-60
2023/12/03 03:04:00;;;;;;;22.00;12.10;;;;;;;-2.25;89.04;100181.61;129362;1273;114730;-59
2023/12/03 03:07:02;;;;;;;20.20;11.10;;;;;;;-2.24;88.95;100188.60;129395;1267;114656;-60
2023/12/03 03:10:05;;;;;;;25.40;13.10;;;;;;;-2.26;88.63;100188.77;129415;1267;114925;-60
2023/12/03 03:13:08;;;;;;;25.10;13.50;;;;;;;-2.25;88.80;100192.27;129402;1264;114996;-60
2023/12/03 03:16:11;;;;;;;22.20;12.20;;;;;;;-2.25;88.68;100195.60;129188;1267;114800;-59
2023/12/03 03:19:13;;;;;;;19.90;12.30;;;;;;;-2.23;88.77;100197.52;129411;1283;115197;-59
2023/12/03 03:22:15;;;;;;;22.50;13.10;;;;;;;-2.22;88.99;100199.80;129552;1265;114730;-59
2023/12/03 03:25:18;;;;;;;26.70;15.90;;;;;;;-2.22;88.90;100202.95;129401;1283;128818;-58
2023/12/03 03:28:22;;;;;;;25.80;13.00;;;;;;;-2.21;88.70;100203.11;129295;1266;114791;-60
2023/12/03 03:31:25;;;;;;;24.20;12.60;;;;;;;-2.21;88.65;100203.98;129508;1266;114656;-61
2023/12/03 03:34:27;;;;;;;27.80;15.00;;;;;;;-2.22;89.06;100210.11;129418;1283;115318;-60
2023/12/03 03:37:31;;;;;;;24.10;13.90;;;;;;;-2.19;88.99;100215.36;129749;1261;115242;-59
2023/12/03 03:40:36;;;;;;;26.40;14.00;;;;;;;-2.19;88.82;100213.09;129682;1271;114872;-60
2023/12/03 03:43:38;;;;;;;24.00;14.20;;;;;;;-2.18;89.17;100220.80;129660;1265;114714;-60
2023/12/03 03:46:41;;;;;;;31.30;16.10;;;;;;;-2.18;88.78;100224.48;129708;1263;114771;-60
2023/12/03 03:49:43;;;;;;;25.80;14.10;;;;;;;-2.18;89.14;100225.34;129381;1268;114899;-60
2023/12/03 03:52:48;;;;;;;28.90;14.90;;;;;;;-2.17;89.09;100232.70;129396;1274;115098;-61
2023/12/03 03:55:50;;;;;;;28.70;15.00;;;;;;;-2.17;89.12;100234.45;129410;1265;114774;-60
2023/12/03 03:58:52;;;;;;;27.80;15.50;;;;;;;-2.15;89.07;100238.48;129299;1267;115514;-60
2023/12/03 04:01:54;;;;;;;29.70;16.00;;;;;;;-2.14;88.92;100239.70;129172;1276;114787;-60
2023/12/03 04:04:56;;;;;;;25.00;15.00;;;;;;;-2.13;89.04;100240.05;129383;1284;114787;-60
2023/12/03 04:07:58;;;;;;;31.20;15.60;;;;;;;-2.12;89.08;100243.02;129219;1267;115197;-60
2023/12/03 04:11:07;;;;;;;26.90;15.20;;;;;;;-2.10;89.54;100248.98;129408;1266;115366;-60
2023/12/03 04:14:17;;;;;;;29.60;15.30;;;;;;;-2.11;89.23;100251.42;129364;1274;114825;-60
2023/12/03 04:17:19;;;;;;;28.60;15.20;;;;;;;-2.12;89.12;100254.04;129238;1283;115018;-60
2023/12/03 04:20:20;;;;;;;26.30;15.20;;;;;;;-2.11;88.98;100257.89;129111;1263;114895;-60
2023/12/03 04:23:22;;;;;;;30.10;16.10;;;;;;;-2.09;89.42;100263.50;129386;1276;114795;-61
2023/12/03 04:26:25;;;;;;;26.10;15.30;;;;;;;-2.07;89.15;100267.19;129280;1272;128900;-66
2023/12/03 04:29:27;;;;;;;27.50;15.70;;;;;;;-2.08;88.98;100273.65;129301;1276;114722;-60
2023/12/03 04:32:29;;;;;;;29.30;15.80;;;;;;;-2.08;89.72;100277.85;129351;1266;114807;-60
2023/12/03 04:35:31;;;;;;;28.10;16.20;;;;;;;-2.07;89.45;100281.89;129405;1283;115254;-60
2023/12/03 04:38:33;;;;;;;30.80;16.00;;;;;;;-2.08;89.30;100286.42;128977;1271;114807;-60
2023/12/03 04:41:36;;;;;;;27.50;15.50;;;;;;;-2.08;89.03;100290.27;129488;1276;115179;-62
2023/12/03 04:44:38;;;;;;;30.90;16.50;;;;;;;-2.08;89.35;100297.27;129391;1283;114761;-59
2023/12/03 04:47:40;;;;;;;30.00;15.90;;;;;;;-2.08;89.10;100300.09;129506;1274;115162;-63
2023/12/03 04:50:42;;;;;;;26.30;15.20;;;;;;;-2.07;89.77;100299.38;128904;1270;115193;-64
2023/12/03 04:53:44;;;;;;;31.40;15.90;;;;;;;-2.08;89.64;100303.23;129221;1267;114748;-64
2023/12/03 04:56:45;;;;;;;30.20;15.50;;;;;;;-2.08;89.55;100309.34;129397;1284;115092;-64
2023/12/03 04:59:47;;;;;;;30.40;15.70;;;;;;;-2.08;89.35;100310.40;129069;1279;114841;-64
2023/12/03 05:02:49;;;;;;;27.70;15.10;;;;;;;-2.08;89.36;100316.35;129281;1276;114667;-62
2023/12/03 05:05:51;;;;;;;25.70;14.70;;;;;;;-2.07;89.58;100320.03;129450;1266;114811;-60
2023/12/03 05:08:53;;;;;;;27.60;15.20;;;;;;;-2.07;89.51;100324.76;128947;1270;128385;-66
2023/12/03 05:11:55;;;;;;;29.90;15.60;;;;;;;-2.07;89.70;100329.13;129177;1277;114817;-59
2023/12/03 05:14:57;;;;;;;27.30;15.90;;;;;;;-2.08;88.96;100332.45;129446;1269;114828;-60
2023/12/03 05:17:59;;;;;;;28.30;15.50;;;;;;;-2.08;89.65;100337.70;129140;1267;114843;-65
2023/12/03 05:21:02;;;;;;;25.70;14.80;;;;;;;-2.07;89.04;100341.38;129332;1264;115125;-65
2023/12/03 05:24:05;;;;;;;27.90;15.70;;;;;;;-2.06;89.42;100341.02;129353;1283;114822;-63
2023/12/03 05:27:07;;;;;;;29.40;14.50;;;;;;;-2.06;89.51;100348.36;129325;1262;114799;-68
2023/12/03 05:30:10;;;;;;;24.80;14.30;;;;;;;-2.07;89.42;100354.15;129437;1276;114702;-69
2023/12/03 05:33:15;;;;;;;24.90;14.40;;;;;;;-2.08;89.24;100357.83;129172;1284;114884;-65
2023/12/03 05:36:22;;;;;;;26.40;15.10;;;;;;;-2.08;89.24;100365.17;129193;1264;114720;-65
2023/12/03 05:39:25;;;;;;;32.70;18.30;;;;;;;-2.08;89.30;100368.67;129161;1277;115369;-64
2023/12/03 05:42:28;;;;;;;29.00;15.70;;;;;;;-2.07;89.58;100365.52;129368;1276;114738;-64
2023/12/03 05:45:30;;;;;;;26.20;15.80;;;;;;;-2.05;89.40;100374.27;129321;1283;114734;-61
2023/12/03 05:48:32;;;;;;;27.90;15.90;;;;;;;-2.04;89.55;100375.48;129162;1267;115389;-64
2023/12/03 05:51:34;;;;;;;25.30;15.20;;;;;;;-2.05;89.43;100383.36;129079;1284;115223;-60
2023/12/03 05:54:36;;;;;;;25.80;14.90;;;;;;;-2.04;89.37;100385.47;129351;1274;114737;-62
2023/12/03 05:57:38;;;;;;;23.30;14.00;;;;;;;-2.04;89.32;100389.15;129291;1265;114698;-60
2023/12/03 06:00:40;;;;;;;26.40;15.70;;;;;;;-2.02;89.57;100394.05;128912;1265;114886;-60
2023/12/03 06:03:42;;;;;;;21.40;13.30;;;;;;;-2.02;89.09;100393.70;129256;1268;115229;-60
2023/12/03 06:06:44;;;;;;;27.10;14.50;;;;;;;-2.01;89.23;100396.68;129231;1276;114861;-61
2023/12/03 06:09:46;;;;;;;25.90;13.90;;;;;;;-2.02;89.20;100400.20;129136;1279;128059;-60
2023/12/03 06:12:48;;;;;;;25.20;14.90;;;;;;;-2.01;89.66;100396.17;129169;1267;115142;-61
2023/12/03 06:15:51;;;;;;;21.80;12.60;;;;;;;-2.01;89.12;100397.21;129369;1264;114873;-64
2023/12/03 06:18:53;;;;;;;23.10;14.70;;;;;;;-2.02;89.29;100403.50;129091;1269;114704;-61
2023/12/03 06:21:57;;;;;;;27.90;14.50;;;;;;;-2.03;89.01;100409.81;129269;1274;114738;-60
2023/12/03 06:24:59;;;;;;;27.10;15.20;;;;;;;-2.03;89.03;100419.42;129384;1261;114831;-60
2023/12/03 06:28:02;;;;;;;22.40;13.50;;;;;;;-2.02;89.32;100422.77;129295;1260;114764;-60
2023/12/03 06:31:07;;;;;;;20.90;13.40;;;;;;;-2.00;89.57;100425.40;129447;1264;114762;-60
2023/12/03 06:34:09;;;;;;;23.50;14.50;;;;;;;-1.98;89.72;100430.65;129142;1268;115160;-60
2023/12/03 06:37:11;;;;;;;22.80;13.60;;;;;;;-1.95;89.80;100437.31;129388;1261;115104;-60
2023/12/03 06:40:14;;;;;;;23.30;13.60;;;;;;;-1.93;89.70;100439.25;129352;1275;114861;-62
2023/12/03 06:43:16;;;;;;;24.30;14.00;;;;;;;-1.91;89.31;100440.66;129184;1269;115035;-60
2023/12/03 06:46:18;;;;;;;24.10;13.70;;;;;;;-1.91;89.25;100443.27;129424;1283;114757;-61
2023/12/03 06:49:20;;;;;;;21.40;12.10;;;;;;;-1.89;89.73;100449.59;129243;1265;115190;-60
2023/12/03 06:52:22;;;;;;;22.10;13.20;;;;;;;-1.88;89.29;100455.54;129128;1281;128397;-60
2023/12/03 06:55:24;;;;;;;23.90;13.80;;;;;;;-1.85;89.51;100459.59;129208;1266;114783;-60
2023/12/03 06:58:27;;;;;;;29.60;16.30;;;;;;;-1.82;89.93;100463.43;129117;1267;115053;-60
2023/12/03 07:01:29;;;;;;;30.60;18.30;;;;;;;-1.78;89.53;100468.02;129174;1263;114734;-60
2023/12/03 07:04:30;;;;;;;26.60;14.90;;;;;;;-1.75;89.73;100470.13;129228;1278;114834;-60
2023/12/03 07:07:33;;;;;;;23.80;13.50;;;;;;;-1.72;89.85;100472.92;129473;1284;114796;-62
2023/12/03 07:10:35;;;;;;;23.40;13.80;;;;;;;-1.71;89.38;100479.06;129063;1271;116258;-63
2023/12/03 07:13:37;;;;;;;24.80;13.50;;;;;;;-1.69;89.69;100484.32;129069;1280;116447;-62
2023/12/03 07:16:39;;;;;;;25.40;18.30;;;;;;;-1.66;89.79;100489.25;129287;1261;114747;-59
2023/12/03 07:19:45;;;;;;;26.00;15.10;;;;;;;-1.64;89.67;100495.89;129202;1269;115088;-59
2023/12/03 07:22:47;;;;;;;25.50;16.10;;;;;;;-1.61;89.57;100497.31;129324;1262;114807;-60
2023/12/03 07:25:49;;;;;;;26.30;14.30;;;;;;;-1.57;89.61;100502.58;129397;1264;114741;-62
2023/12/03 07:28:51;;;;;;;27.00;14.90;;;;;;;-1.54;89.42;100509.23;129345;1279;115157;-60
2023/12/03 07:31:53;;;;;;;21.40;13.10;;;;;;;-1.49;89.36;100514.34;129354;1264;114716;-60
2023/12/03 07:34:55;;;;;;;22.60;13.70;;;;;;;-1.43;89.13;100514.35;129253;1264;115296;-60
2023/12/03 07:37:59;;;;;;;23.50;13.10;;;;;;;-1.35;89.32;100520.69;129339;1267;114732;-60
2023/12/03 07:41:01;;;;;;;25.40;14.90;;;;;;;-1.30;89.29;100522.63;129117;1261;114838;-62
2023/12/03 07:44:03;;;;;;;23.60;13.40;;;;;;;-1.22;89.25;100526.68;129216;1274;114764;-60
2023/12/03 07:47:05;;;;;;;24.40;14.40;;;;;;;-1.14;89.23;100529.50;129348;1265;116336;-60
2023/12/03 07:50:08;;;;;;;25.90;15.40;;;;;;;-1.04;89.30;100531.27;128883;1270;114893;-60
2023/12/03 07:53:11;;;;;;;20.50;13.50;;;;;;;-0.94;89.38;100537.25;129136;1260;114887;-59
2023/12/03 07:56:13;;;;;;;20.20;12.60;;;;;;;-0.87;88.93;100541.45;129198;1265;115309;-60
2023/12/03 07:59:15;;;;;;;25.30;13.10;;;;;;;-0.83;88.75;100546.21;129212;1280;114811;-60
2023/12/03 08:02:17;;;;;;;26.60;15.30;;;;;;;-0.79;88.74;100547.61;129210;1265;115197;-61
2023/12/03 08:05:19;;;;;;;22.60;13.90;;;;;;;-0.73;88.60;100556.21;129248;1265;115404;-60
2023/12/03 08:08:21;;;;;;;25.70;13.40;;;;;;;-0.67;88.75;100560.25;129448;1262;114841;-60
2023/12/03 08:11:23;;;;;;;28.50;14.60;;;;;;;-0.60;88.42;100564.64;129157;1262;115585;-59
2023/12/03 08:14:25;;;;;;;25.10;14.40;;;;;;;-0.54;88.11;100570.78;129300;1262;114818;-60
2023/12/03 08:17:26;;;;;;;23.90;14.30;;;;;;;-0.48;87.99;100572.18;129303;1265;114780;-60
2023/12/03 08:20:28;;;;;;;27.50;15.50;;;;;;;-0.42;87.97;100571.14;129263;1284;128812;-60
2023/12/03 08:23:32;;;;;;;29.00;16.30;;;;;;;-0.37;88.05;100572.88;129298;1262;114751;-60
2023/12/03 08:26:34;;;;;;;24.60;15.70;;;;;;;-0.35;87.74;100576.75;129350;1265;114765;-62
2023/12/03 08:29:36;;;;;;;27.60;15.50;;;;;;;-0.32;87.54;100577.98;129379;1265;114829;-59
2023/12/03 08:32:38;;;;;;;26.80;15.70;;;;;;;-0.28;87.34;100586.40;129270;1262;114815;-60
2023/12/03 08:35:41;;;;;;;22.00;13.00;;;;;;;-0.24;86.99;100597.98;129054;1261;114721;-60
2023/12/03 08:38:43;;;;;;;23.30;14.20;;;;;;;-0.23;86.88;100606.40;129317;1263;114732;-60
2023/12/03 08:41:45;;;;;;;21.00;13.60;;;;;;;-0.22;86.99;100612.73;129518;1264;114794;-60
2023/12/03 08:44:48;;;;;;;23.90;13.10;;;;;;;-0.18;86.97;100616.77;129184;1283;114947;-59
2023/12/03 08:47:57;;;;;;;23.90;12.80;;;;;;;-0.11;87.20;100618.86;129148;1283;114860;-58
2023/12/03 08:50:59;;;;;;;22.70;13.10;;;;;;;-0.04;87.12;100625.70;129293;1277;114745;-62
2023/12/03 08:54:01;;;;;;;23.80;13.90;;;;;;;0.01;86.81;100629.03;129348;1264;114702;-57
2023/12/03 08:57:04;;;;;;;21.70;13.10;;;;;;;0.07;86.64;100632.36;129216;1269;114830;-57
2023/12/03 09:00:10;;;;;;;23.80;14.00;;;;;;;0.13;86.68;100631.48;129317;1264;114802;-58
2023/12/03 09:03:19;;;;;;;25.70;14.90;;;;;;;0.24;86.73;100637.44;129302;1283;115155;-57
2023/12/03 09:06:23;;;;;;;22.80;13.70;;;;;;;0.31;86.32;100636.73;129371;1264;114787;-57
2023/12/03 09:09:26;;;;;;;27.60;16.10;;;;;;;0.37;85.84;100640.39;129335;1262;114787;-58
2023/12/03 09:12:31;;;;;;;24.30;13.70;;;;;;;0.43;85.87;100641.42;129053;1265;114746;-59
2023/12/03 09:15:35;;;;;;;23.10;13.70;;;;;;;0.50;85.49;100647.39;129026;1268;128899;-58
2023/12/03 09:18:38;;;;;;;24.90;12.90;;;;;;;0.52;85.03;100650.36;129378;1264;114734;-59
2023/12/03 09:21:41;;;;;;;24.90;14.00;;;;;;;0.54;85.32;100649.84;129463;1263;114733;-59
2023/12/03 09:24:43;;;;;;;24.00;13.20;;;;;;;0.56;85.24;100652.48;129287;1261;114737;-60
2023/12/03 09:27:46;;;;;;;24.70;12.90;;;;;;;0.65;85.46;100660.01;129460;1264;115532;-59
2023/12/03 09:30:51;;;;;;;22.70;13.40;;;;;;;0.75;84.84;100659.27;129278;1264;115176;-59
2023/12/03 09:33:54;;;;;;;21.80;13.80;;;;;;;0.83;84.74;100666.11;129235;1266;114821;-59
2023/12/03 09:36:57;;;;;;;24.40;15.10;;;;;;;0.90;84.49;100667.83;129251;1265;115181;-60
2023/12/03 09:40:03;;;;;;;20.80;12.80;;;;;;;0.97;84.34;100669.21;129462;1265;114681;-59
2023/12/03 09:43:06;;;;;;;23.40;14.40;;;;;;;1.03;84.03;100671.64;129432;1264;114661;-59
2023/12/03 09:46:15;;;;;;;34.60;18.60;;;;;;;1.11;84.16;100676.70;129417;1272;114741;-59
2023/12/03 09:49:18;;;;;;;35.30;19.80;;;;;;;1.16;83.82;100676.34;129451;1263;129050;-60
2023/12/03 09:52:27;;;;;;;30.70;17.10;;;;;;;1.23;83.68;100677.71;129321;1264;115200;-59
2023/12/03 09:55:31;;;;;;;21.90;12.50;;;;;;;1.34;83.70;100680.83;129276;1264;114866;-59
2023/12/03 09:58:34;;;;;;;22.50;12.20;;;;;;;1.35;83.02;100676.41;129357;1284;114825;-65
2023/12/03 10:01:39;;;;;;;18.80;11.40;;;;;;;1.34;82.96;100674.83;129520;1267;114832;-63
2023/12/03 10:04:41;;;;;;;24.60;12.50;;;;;;;1.34;82.72;100675.55;129504;1268;128804;-62
2023/12/03 10:07:47;;;;;;;21.00;12.90;;;;;;;1.29;82.28;100674.16;129589;1265;114825;-62
2023/12/03 10:10:59;;;;;;;25.70;12.20;;;;;;;1.24;82.30;100673.14;129177;1276;114816;-61
2023/12/03 10:14:01;;;;;;;19.80;12.10;;;;;;;1.19;82.09;100671.92;129365;1284;114797;-61
2023/12/03 10:17:04;;;;;;;20.40;12.00;;;;;;;1.14;82.04;100673.89;129195;1269;114751;-63
2023/12/03 10:20:24;;;;;;;27.60;14.90;;;;;;;1.11;82.10;100677.06;129662;1264;115336;-62
2023/12/03 10:23:35;;;;;;;62.80;29.90;;;;;;;1.05;81.92;100679.21;129532;1265;115313;-63
2023/12/03 10:27:00;;;;;;;117.00;50.00;;;;;;;1.01;81.79;100679.57;129500;1262;115120;-61
2023/12/03 10:30:04;;;;;;;27.10;16.40;;;;;;;0.98;81.36;100682.05;129314;1264;115117;-59
2023/12/03 10:33:06;;;;;;;24.90;13.50;;;;;;;0.92;81.28;100680.31;129535;1264;114786;-61
2023/12/03 10:36:15;;;;;;;26.80;15.70;;;;;;;0.88;81.45;100681.03;129271;1270;128583;-62
2023/12/03 10:39:18;;;;;;;21.70;14.40;;;;;;;0.83;81.48;100685.80;129561;1263;114827;-60
2023/12/03 10:42:21;;;;;;;20.50;11.10;;;;;;;0.81;81.19;100690.55;129516;1281;114890;-59
2023/12/03 10:45:25;;;;;;;27.10;14.30;;;;;;;0.78;81.31;100689.51;129276;1264;114803;-60
2023/12/03 10:48:30;;;;;;;22.40;12.70;;;;;;;0.76;80.99;100692.33;129308;1280;114844;-60
2023/12/03 10:51:36;;;;;;;24.80;13.80;;;;;;;0.72;81.16;100692.69;129304;1265;128766;-61
2023/12/03 10:54:38;;;;;;;19.30;12.20;;;;;;;0.72;81.26;100697.60;129440;1261;114757;-62
2023/12/03 10:58:02;;;;;;;21.50;14.00;;;;;;;0.67;81.04;100696.39;129192;1265;114879;-61
2023/12/03 11:01:25;;;;;;;23.30;13.70;;;;;;;0.62;80.76;100701.32;129423;1280;114773;-62
2023/12/03 11:04:34;;;;;;;20.50;11.60;;;;;;;0.60;80.94;100702.56;129113;1275;114982;-60
2023/12/03 11:07:37;;;;;;;20.10;12.20;;;;;;;0.58;80.81;100706.24;129375;1284;128923;-61
2023/12/03 11:10:39;;;;;;;23.30;12.70;;;;;;;0.56;80.61;100714.69;129308;1264;114758;-60
2023/12/03 11:13:42;;;;;;;24.50;12.20;;;;;;;0.55;80.58;100716.63;129261;1264;114754;-60
2023/12/03 11:17:06;;;;;;;34.30;17.30;;;;;;;0.53;80.74;100722.95;129407;1263;115409;-61
2023/12/03 11:20:17;;;;;;;34.80;17.30;;;;;;;0.50;80.18;100728.59;129341;1264;115172;-61
2023/12/03 11:23:19;;;;;;;35.50;18.70;;;;;;;0.46;80.15;100728.59;129430;1264;114711;-62
2023/12/03 11:26:23;;;;;;;32.30;17.10;;;;;;;0.46;80.21;100731.58;129439;1277;114725;-61
2023/12/03 11:29:51;;;;;;;42.10;23.20;;;;;;;0.48;80.48;100729.98;129410;1264;115471;-63
2023/12/03 11:32:54;;;;;;;46.10;21.40;;;;;;;0.51;80.44;100730.16;129840;1261;115036;-65
2023/12/03 11:35:58;;;;;;;33.20;18.00;;;;;;;0.55;80.43;100727.17;129617;1264;115148;-76
2023/12/03 11:39:01;;;;;;;28.90;16.10;;;;;;;0.64;80.88;100725.05;129490;1265;115614;-63
2023/12/03 11:42:06;;;;;;;38.40;21.20;;;;;;;0.76;81.19;100727.66;129605;1271;127070;-68
2023/12/03 11:45:43;;;;;;;29.80;16.10;;;;;;;0.90;80.95;100724.45;129509;1281;114708;-71
2023/12/03 11:48:45;;;;;;;29.20;17.30;;;;;;;1.04;81.11;100723.01;129047;1268;116019;-69
2023/12/03 11:51:48;;;;;;;32.70;18.00;;;;;;;1.17;80.68;100722.95;128940;1273;115486;-66
2023/12/03 11:54:54;;;;;;;35.40;19.60;;;;;;;1.27;80.90;100716.23;129055;1273;114955;-68
2023/12/03 11:57:56;;;;;;;35.40;19.30;;;;;;;1.38;80.72;100720.94;128802;1291;128848;-70
2023/12/03 12:01:00;;;;;;;45.20;22.80;;;;;;;1.50;81.11;100718.76;128611;1268;115268;-64
2023/12/03 12:04:02;;;;;;;43.50;23.30;;;;;;;1.61;81.01;100720.10;129054;1273;114934;-63
2023/12/03 12:07:17;;;;;;;71.20;31.70;;;;;;;1.68;80.73;100723.05;129023;1273;114766;-67
2023/12/03 12:10:20;;;;;;;43.30;21.40;;;;;;;1.74;80.59;100726.53;128990;1286;115249;-65
2023/12/03 12:13:22;;;;;;;48.00;23.90;;;;;;;1.76;80.58;100729.52;128604;1274;114781;-69
2023/12/03 12:16:25;;;;;;;28.60;16.90;;;;;;;1.75;80.34;100729.34;128496;1289;114837;-63
2023/12/03 12:19:27;;;;;;;31.60;18.20;;;;;;;1.74;79.96;100730.92;128494;1273;114893;-61
2023/12/03 12:22:32;;;;;;;31.90;16.90;;;;;;;1.74;80.12;100730.05;128615;1285;115167;-70
2023/12/03 12:25:34;;;;;;;29.20;15.20;;;;;;;1.76;79.99;100738.85;129110;1283;115307;-61
2023/12/03 12:28:36;;;;;;;30.40;17.20;;;;;;;1.75;79.78;100741.48;129251;1260;114800;-64
2023/12/03 12:31:39;;;;;;;35.60;19.50;;;;;;;1.73;79.86;100748.90;129125;1260;114765;-74
2023/12/03 12:34:41;;;;;;;30.50;17.80;;;;;;;1.72;79.95;100746.27;129505;1265;114751;-72
2023/12/03 12:37:45;;;;;;;29.60;16.60;;;;;;;1.72;79.92;100744.34;129720;1261;114714;-71
2023/12/03 12:40:55;;;;;;;31.60;17.60;;;;;;;1.71;79.57;100748.20;129287;1261;114832;-63
2023/12/03 12:43:58;;;;;;;28.40;17.30;;;;;;;1.67;80.09;100752.80;129305;1261;114733;-61
2023/12/03 12:47:00;;;;;;;26.90;14.40;;;;;;;1.67;79.79;100751.21;129077;1283;114747;-61
2023/12/03 12:50:04;;;;;;;33.10;20.60;;;;;;;1.69;79.88;100748.05;129311;1265;114786;-61
2023/12/03 12:53:08;;;;;;;33.20;19.70;;;;;;;1.70;79.62;100744.17;129284;1261;114751;-65
2023/12/03 12:56:11;;;;;;;27.70;16.30;;;;;;;1.71;79.57;100737.30;129358;1263;115326;-61
2023/12/03 12:59:18;;;;;;;27.90;16.00;;;;;;;1.72;79.38;100743.98;129073;1260;114843;-61
2023/12/03 13:02:22;;;;;;;27.20;16.40;;;;;;;1.73;79.14;100744.33;129391;1264;115187;-75
2023/12/03 13:05:25;;;;;;;25.00;15.70;;;;;;;1.66;78.77;100745.95;129207;1283;128632;-62
2023/12/03 13:08:27;;;;;;;24.50;14.00;;;;;;;1.57;78.92;100749.69;129469;1279;114767;-68
2023/12/03 13:11:33;;;;;;;20.80;12.30;;;;;;;1.47;78.65;100748.52;129243;1264;114780;-62
2023/12/03 13:14:36;;;;;;;21.40;12.80;;;;;;;1.37;78.33;100748.91;126857;1264;3537735;-62
2023/12/03 13:17:53;;;;;;;25.40;13.20;;;;;;;1.29;78.15;100750.70;129324;1265;115194;-63
2023/12/03 13:20:55;;;;;;;27.60;16.00;;;;;;;1.23;78.57;100751.96;129262;1273;128855;-65
2023/12/03 13:24:02;;;;;;;27.40;15.20;;;;;;;1.20;78.98;100748.09;129194;1283;114787;-62
2023/12/03 13:27:15;;;;;;;24.60;14.40;;;;;;;1.19;79.02;100750.04;129169;1264;114731;-62
2023/12/03 13:30:29;;;;;;;24.60;13.80;;;;;;;1.16;78.56;100752.86;129146;1263;114796;-62
2023/12/03 13:33:50;;;;;;;19.90;12.90;;;;;;;1.12;78.57;100751.29;129383;1264;114796;-62
2023/12/03 13:37:04;;;;;;;24.80;14.70;;;;;;;1.10;78.95;100756.21;129353;1262;128233;-62
2023/12/03 13:40:22;;;;;;;22.30;14.20;;;;;;;1.11;78.82;100757.46;129514;1264;114746;-62